createdAt,value
2023-02-26T00:01:19.951Z,12.43
2023-02-26T00:03:54.753Z,14.93
2023-02-26T00:06:23.932Z,13.35
2023-02-26T00:08:54.323Z,12.37
2023-02-26T00:11:22.351Z,12.25
2023-02-26T00:13:51.115Z,13.45
2023-02-26T00:16:30.444Z,15.52
2023-02-26T00:18:59.022Z,14.45
2023-02-26T00:21:26.707Z,14.20
2023-02-26T00:23:53.914Z,15.75
2023-02-26T00:26:21.607Z,13.40
2023-02-26T00:28:50.143Z,14.65
2023-02-26T00:31:17.574Z,13.70
2023-02-26T00:33:47.129Z,12.05
2023-02-26T00:36:16.759Z,14.95
2023-02-26T00:38:46.623Z,14.30
2023-02-26T00:41:15.821Z,13.13
2023-02-26T00:57:37.223Z,10.60
2023-02-26T01:03:04.703Z,14.00
2023-02-26T01:08:58.723Z,11.18
2023-02-26T01:11:58.341Z,14.25
2023-02-26T01:17:49.703Z,13.52
2023-02-26T01:20:57.575Z,14.23
2023-02-26T01:23:29.281Z,12.70
2023-02-26T01:34:56.052Z,13.10
2023-02-26T01:37:23.297Z,13.32
2023-02-26T01:39:50.893Z,12.00
2023-02-26T01:42:23.245Z,12.20
2023-02-26T01:44:50.689Z,16.02
2023-02-26T01:47:36.368Z,14.80
2023-02-26T01:50:17.952Z,10.60
2023-02-26T01:52:50.984Z,13.32
2023-02-26T01:55:23.592Z,11.25
2023-02-26T01:57:52.977Z,11.20
2023-02-26T02:00:20.366Z,9.15
2023-02-26T02:02:47.726Z,8.88
2023-02-26T02:05:19.153Z,13.82
2023-02-26T02:07:46.320Z,13.65
2023-02-26T02:10:13.708Z,13.18
2023-02-26T02:12:45.698Z,14.02
2023-02-26T02:15:26.817Z,14.05
2023-02-26T02:18:00.114Z,13.52
2023-02-26T02:20:27.645Z,15.65
2023-02-26T02:23:01.342Z,12.32
2023-02-26T02:25:49.623Z,11.88
2023-02-26T02:28:37.221Z,13.55
2023-02-26T02:31:07.904Z,11.50
2023-02-26T02:33:39.455Z,11.02
2023-02-26T02:36:10.435Z,9.80
2023-02-26T02:38:41.283Z,12.25
2023-02-26T02:41:16.911Z,14.43
2023-02-26T02:43:44.992Z,14.98
2023-02-26T02:46:16.391Z,11.10
2023-02-26T02:48:46.389Z,12.85
2023-02-26T02:51:13.630Z,13.25
2023-02-26T02:53:44.217Z,12.45
2023-02-26T02:56:17.896Z,18.05
2023-02-26T02:58:48.168Z,13.13
2023-02-26T03:01:17.286Z,14.73
2023-02-26T03:03:51.178Z,16.70
2023-02-26T03:06:18.793Z,14.77
2023-02-26T03:08:48.676Z,14.15
2023-02-26T03:11:16.256Z,11.07
2023-02-26T03:13:43.504Z,12.70
2023-02-26T03:16:13.661Z,15.20
2023-02-26T03:18:45.946Z,13.60
2023-02-26T03:21:18.693Z,14.27
2023-02-26T03:23:54.770Z,15.18
2023-02-26T03:26:30.297Z,15.15
2023-02-26T03:29:11.236Z,17.02
2023-02-26T03:31:42.577Z,15.15
2023-02-26T03:34:14.812Z,17.13
2023-02-26T03:37:02.477Z,17.58
2023-02-26T03:39:32.531Z,13.73
2023-02-26T03:42:08.979Z,13.52
2023-02-26T03:44:42.239Z,14.85
2023-02-26T03:47:11.943Z,15.25
2023-02-26T03:49:42.583Z,14.47
2023-02-26T03:54:42.768Z,16.25
2023-02-26T03:57:12.629Z,13.82
2023-02-26T03:59:40.065Z,15.05
2023-02-26T04:02:22.820Z,12.95
2023-02-26T04:05:09.113Z,15.30
2023-02-26T04:07:36.368Z,11.38
2023-02-26T04:10:04.262Z,13.65
2023-02-26T04:12:31.661Z,19.85
2023-02-26T04:14:59.504Z,13.40
2023-02-26T04:17:29.078Z,12.35
2023-02-26T04:22:25.201Z,17.85
2023-02-26T04:24:52.451Z,14.73
2023-02-26T04:27:19.678Z,15.20
2023-02-26T04:29:46.946Z,13.75
2023-02-26T04:32:14.292Z,13.85
2023-02-26T04:34:41.829Z,16.45
2023-02-26T04:37:11.042Z,17.20
2023-02-26T04:39:38.285Z,18.05
2023-02-26T04:42:05.479Z,16.00
2023-02-26T04:44:33.090Z,16.63
2023-02-26T04:47:00.343Z,20.70
2023-02-26T04:49:27.448Z,14.38
2023-02-26T04:51:54.788Z,20.30
2023-02-26T04:54:22.121Z,15.77
2023-02-26T04:56:49.266Z,23.27
2023-02-26T04:59:18.041Z,17.05
2023-02-26T05:01:45.619Z,19.75
2023-02-26T05:04:13.276Z,20.23
2023-02-26T05:06:40.901Z,19.60
2023-02-26T05:09:08.348Z,18.45
2023-02-26T05:11:35.772Z,19.15
2023-02-26T05:14:02.978Z,18.75
2023-02-26T05:16:30.523Z,19.55
2023-02-26T05:18:57.997Z,20.25
2023-02-26T05:21:26.286Z,17.52
2023-02-26T05:23:53.623Z,17.05
2023-02-26T05:26:20.813Z,15.32
2023-02-26T05:28:49.282Z,16.17
2023-02-26T05:31:16.458Z,16.98
2023-02-26T05:33:43.807Z,18.52
2023-02-26T05:36:11.363Z,14.82
2023-02-26T05:38:38.565Z,14.93
2023-02-26T05:41:05.896Z,19.38
2023-02-26T05:43:34.182Z,16.35
2023-02-26T05:46:01.416Z,15.52
2023-02-26T05:48:28.684Z,18.95
2023-02-26T05:50:55.906Z,15.00
2023-02-26T05:53:23.048Z,21.45
2023-02-26T05:55:50.553Z,17.10
2023-02-26T05:58:17.893Z,17.25
2023-02-26T06:00:45.282Z,19.10
2023-02-26T06:03:12.546Z,19.63
2023-02-26T06:05:39.817Z,18.67
2023-02-26T06:08:07.400Z,17.33
2023-02-26T06:10:34.625Z,18.77
2023-02-26T06:13:01.862Z,20.35
2023-02-26T06:15:29.046Z,22.65
2023-02-26T06:17:56.178Z,21.40
2023-02-26T06:20:23.472Z,17.33
2023-02-26T06:22:50.708Z,19.05
2023-02-26T06:25:17.886Z,21.80
2023-02-26T06:27:45.067Z,20.17
2023-02-26T06:30:12.454Z,20.45
2023-02-26T06:32:39.745Z,17.33
2023-02-26T06:35:07.116Z,18.38
2023-02-26T06:37:34.311Z,19.88
2023-02-26T06:40:01.442Z,19.33
2023-02-26T06:42:28.615Z,18.80
2023-02-26T06:44:57.118Z,20.38
2023-02-26T06:47:24.885Z,18.95
2023-02-26T06:49:52.012Z,23.52
2023-02-26T06:52:19.189Z,20.77
2023-02-26T06:54:46.711Z,22.75
2023-02-26T06:57:14.470Z,21.83
2023-02-26T06:59:41.635Z,22.60
2023-02-26T07:02:10.548Z,18.48
2023-02-26T07:04:37.819Z,22.33
2023-02-26T07:07:06.342Z,21.60
2023-02-26T07:09:33.465Z,21.23
2023-02-26T07:12:00.588Z,20.10
2023-02-26T07:14:27.820Z,19.13
2023-02-26T07:16:55.017Z,21.10
2023-02-26T07:19:22.450Z,21.13
2023-02-26T07:21:49.567Z,18.67
2023-02-26T07:24:16.709Z,19.80
2023-02-26T07:26:44.861Z,21.08
2023-02-26T07:29:13.030Z,21.38
2023-02-26T07:31:42.583Z,21.30
2023-02-26T07:34:09.939Z,22.17
2023-02-26T07:36:37.242Z,22.25
2023-02-26T07:39:04.396Z,19.30
2023-02-26T07:41:31.555Z,23.95
2023-02-26T07:43:58.691Z,19.60
2023-02-26T07:46:26.111Z,18.83
2023-02-26T07:48:53.399Z,19.17
2023-02-26T07:51:20.554Z,21.92
2023-02-26T07:53:47.671Z,21.63
2023-02-26T07:56:14.777Z,20.70
2023-02-26T07:58:41.914Z,18.95
2023-02-26T08:01:09.111Z,19.13
2023-02-26T08:03:36.241Z,18.13
2023-02-26T08:06:03.507Z,17.30
2023-02-26T08:08:30.576Z,21.17
2023-02-26T08:10:59.816Z,19.73
2023-02-26T08:13:26.938Z,18.00
2023-02-26T08:15:54.313Z,22.48
2023-02-26T08:18:21.542Z,19.92
2023-02-26T08:20:48.647Z,20.27
2023-02-26T08:23:15.742Z,19.48
2023-02-26T08:25:42.840Z,22.83
2023-02-26T08:28:09.973Z,22.27
2023-02-26T08:30:37.163Z,19.63
2023-02-26T08:33:04.418Z,18.08
2023-02-26T08:35:32.033Z,12.35
2023-02-26T08:38:00.061Z,20.65
2023-02-26T08:40:27.204Z,15.07
2023-02-26T08:42:54.473Z,10.43
2023-02-26T08:45:21.629Z,11.18
2023-02-26T08:47:56.738Z,9.88
2023-02-26T08:50:25.047Z,10.23
2023-02-26T08:52:52.198Z,12.85
2023-02-26T08:55:19.282Z,11.30
2023-02-26T08:57:46.474Z,12.27
2023-02-26T09:00:16.245Z,13.68
2023-02-26T09:02:43.435Z,14.20
2023-02-26T09:05:11.989Z,12.68
2023-02-26T09:07:39.775Z,13.95
2023-02-26T09:10:07.342Z,13.80
2023-02-26T09:12:36.980Z,15.48
2023-02-26T09:15:07.590Z,17.65
2023-02-26T09:20:01.860Z,15.43
2023-02-26T09:22:28.978Z,15.10
2023-02-26T09:24:56.198Z,17.15
2023-02-26T09:27:23.510Z,14.77
2023-02-26T09:29:50.601Z,17.10
2023-02-26T09:32:17.794Z,16.45
2023-02-26T09:34:45.146Z,17.02
2023-02-26T09:37:12.436Z,16.83
2023-02-26T09:39:39.565Z,16.95
2023-02-26T09:42:29.979Z,16.65
2023-02-26T09:45:00.126Z,16.55
2023-02-26T09:47:27.352Z,12.70
2023-02-26T09:49:54.438Z,14.13
2023-02-26T09:52:32.858Z,13.45
2023-02-26T09:55:02.294Z,14.13
2023-02-26T09:57:33.909Z,17.55
2023-02-26T10:00:01.952Z,14.02
2023-02-26T10:02:35.107Z,15.38
2023-02-26T10:05:19.585Z,12.80
2023-02-26T10:07:50.103Z,14.88
2023-02-26T10:10:34.301Z,13.23
2023-02-26T10:13:01.493Z,15.75
2023-02-26T10:15:36.703Z,13.68
2023-02-26T10:18:11.145Z,13.13
2023-02-26T10:20:39.747Z,11.93
2023-02-26T10:23:09.795Z,15.63
2023-02-26T10:25:41.047Z,13.80
2023-02-26T10:28:26.528Z,10.70
2023-02-26T10:30:57.078Z,15.20
2023-02-26T10:33:27.457Z,19.35
2023-02-26T10:35:59.435Z,15.52
2023-02-26T10:38:28.436Z,11.40
2023-02-26T10:40:59.479Z,8.60
2023-02-26T10:43:32.387Z,8.90
2023-02-26T10:46:05.407Z,6.40
2023-02-26T10:48:50.931Z,7.93
2023-02-26T10:51:19.722Z,8.52
2023-02-26T10:53:58.427Z,9.10
2023-02-26T10:56:30.361Z,7.85
2023-02-26T10:58:57.483Z,9.55
2023-02-26T11:01:26.434Z,9.32
2023-02-26T11:04:02.620Z,9.88
2023-02-26T11:06:31.363Z,11.18
2023-02-26T11:08:59.124Z,6.00
2023-02-26T11:11:38.277Z,11.70
2023-02-26T11:14:05.449Z,9.07
2023-02-26T11:16:32.924Z,8.02
2023-02-26T11:19:01.210Z,15.68
2023-02-26T11:21:33.622Z,8.57
2023-02-26T11:24:05.948Z,8.80
2023-02-26T11:26:35.615Z,11.27
2023-02-26T11:29:02.869Z,13.23
2023-02-26T11:31:31.124Z,10.38
2023-02-26T11:34:05.936Z,18.42
2023-02-26T11:36:34.467Z,11.75
2023-02-26T11:39:08.022Z,9.45
2023-02-26T11:41:38.166Z,10.02
2023-02-26T11:44:10.835Z,11.93
2023-02-26T11:46:41.308Z,12.48
2023-02-26T11:49:10.864Z,18.52
2023-02-26T11:51:38.032Z,17.27
2023-02-26T11:54:20.262Z,10.40
2023-02-26T11:56:47.847Z,7.40
2023-02-26T11:59:18.367Z,10.20
2023-02-26T12:01:45.588Z,16.48
2023-02-26T12:04:14.097Z,17.48
2023-02-26T12:06:42.001Z,29.23
2023-02-26T12:09:13.216Z,17.48
2023-02-26T12:11:52.390Z,14.52
2023-02-26T12:14:38.082Z,6.28
2023-02-26T12:17:14.358Z,7.60
2023-02-26T12:19:46.826Z,8.43
2023-02-26T12:22:32.787Z,5.68
2023-02-26T12:25:18.675Z,11.88
2023-02-26T12:27:48.905Z,4.90
2023-02-26T12:30:37.281Z,7.05
2023-02-26T12:33:27.190Z,6.63
2023-02-26T12:36:02.203Z,11.77
2023-02-26T12:38:35.380Z,9.15
2023-02-26T12:41:16.286Z,4.95
2023-02-26T12:43:56.718Z,7.70
2023-02-26T12:46:26.655Z,6.88
2023-02-26T12:49:05.997Z,14.27
2023-02-26T12:51:35.817Z,8.25
2023-02-26T12:54:08.841Z,9.57
2023-02-26T12:56:41.913Z,9.30
2023-02-26T12:59:27.606Z,8.55
2023-02-26T13:02:00.920Z,11.30
2023-02-26T13:04:43.878Z,8.20
2023-02-26T13:07:18.802Z,4.07
2023-02-26T13:09:56.485Z,6.95
2023-02-26T13:12:26.671Z,9.55
2023-02-26T13:14:56.725Z,5.78
2023-02-26T13:17:50.000Z,5.50
2023-02-26T13:20:28.857Z,5.57
2023-02-26T13:22:58.437Z,10.40
2023-02-26T13:25:40.724Z,7.75
2023-02-26T13:28:31.095Z,8.30
2023-02-26T13:31:00.575Z,6.53
2023-02-26T13:33:30.945Z,3.92
2023-02-26T13:36:00.266Z,8.27
2023-02-26T13:38:35.213Z,6.22
2023-02-26T13:41:15.969Z,4.18
2023-02-26T13:46:13.146Z,5.57
2023-02-26T13:48:53.033Z,8.90
2023-02-26T13:51:40.418Z,9.35
2023-02-26T13:54:17.374Z,5.80
2023-02-26T13:56:50.843Z,6.55
2023-02-26T13:59:32.172Z,7.72
2023-02-26T14:02:03.856Z,7.88
2023-02-26T14:04:50.359Z,7.57
2023-02-26T14:07:17.835Z,8.32
2023-02-26T14:09:51.691Z,7.22
2023-02-26T14:12:26.345Z,6.32
2023-02-26T14:15:02.254Z,11.57
2023-02-26T14:17:35.165Z,7.28
2023-02-26T14:20:20.384Z,6.57
2023-02-26T14:22:48.670Z,11.35
2023-02-26T14:25:34.941Z,9.25
2023-02-26T14:28:21.024Z,6.15
2023-02-26T14:30:49.193Z,8.20
2023-02-26T14:33:18.249Z,9.10
2023-02-26T14:35:49.432Z,9.45
2023-02-26T14:38:22.437Z,6.68
2023-02-26T14:40:52.492Z,9.32
2023-02-26T14:43:21.500Z,11.15
2023-02-26T14:45:50.119Z,8.48
2023-02-26T14:48:18.870Z,10.30
2023-02-26T14:50:52.086Z,11.82
2023-02-26T14:53:28.459Z,11.80
2023-02-26T14:56:14.212Z,18.58
2023-02-26T14:59:02.250Z,11.95
2023-02-26T15:01:56.572Z,12.40
2023-02-26T15:04:42.964Z,9.60
2023-02-26T15:07:56.144Z,11.85
2023-02-26T15:10:33.192Z,9.35
2023-02-26T15:13:03.602Z,11.68
2023-02-26T15:15:37.341Z,13.23
2023-02-26T15:18:18.819Z,15.02
2023-02-26T15:20:54.592Z,16.38
2023-02-26T15:23:33.488Z,16.25
2023-02-26T15:26:01.246Z,18.70
2023-02-26T15:28:29.888Z,21.38
2023-02-26T15:31:00.398Z,15.90
2023-02-26T15:33:27.949Z,15.35
2023-02-26T15:35:58.795Z,19.60
2023-02-26T15:38:26.233Z,21.98
2023-02-26T15:40:54.994Z,14.30
2023-02-26T15:43:24.050Z,16.75
2023-02-26T15:45:53.090Z,11.50
2023-02-26T15:48:28.839Z,10.55
2023-02-26T15:50:58.402Z,10.95
2023-02-26T15:53:34.914Z,11.63
2023-02-26T15:56:06.575Z,15.55
2023-02-26T15:58:38.881Z,16.73
2023-02-26T16:01:06.864Z,19.35
2023-02-26T16:03:35.806Z,17.00
2023-02-26T16:06:03.332Z,14.02
2023-02-26T16:08:30.581Z,10.32
2023-02-26T16:10:59.640Z,10.75
2023-02-26T16:13:31.412Z,8.77
2023-02-26T16:16:09.802Z,17.23
2023-02-26T16:18:37.607Z,16.08
2023-02-26T16:21:06.667Z,14.27
2023-02-26T16:23:41.686Z,15.18
2023-02-26T16:26:10.125Z,15.82
2023-02-26T16:28:45.773Z,12.88
2023-02-26T16:31:20.409Z,13.82
2023-02-26T16:33:53.558Z,14.07
2023-02-26T16:36:24.830Z,12.52
2023-02-26T16:38:58.710Z,12.77
2023-02-26T16:41:27.164Z,16.90
2023-02-26T16:43:57.594Z,18.63
2023-02-26T16:46:44.506Z,18.10
2023-02-26T16:49:24.337Z,20.35
2023-02-26T16:51:52.252Z,13.77
2023-02-26T16:54:25.611Z,15.90
2023-02-26T16:57:12.996Z,20.38
2023-02-26T16:59:44.403Z,22.77
2023-02-26T17:02:12.944Z,18.92
2023-02-26T17:04:40.641Z,15.70
2023-02-26T17:07:21.211Z,16.50
2023-02-26T17:12:22.975Z,21.88
2023-02-26T17:14:56.364Z,16.88
2023-02-26T17:17:24.157Z,19.05
2023-02-26T17:19:51.722Z,19.23
2023-02-26T17:22:20.209Z,19.90
2023-02-26T17:24:52.629Z,16.15
2023-02-26T17:27:45.858Z,18.85
2023-02-26T17:30:16.030Z,16.52
2023-02-26T17:32:44.141Z,16.73
2023-02-26T17:35:15.701Z,18.33
2023-02-26T17:37:44.959Z,20.40
2023-02-26T17:40:32.623Z,19.05
2023-02-26T17:43:00.157Z,24.58
2023-02-26T17:45:27.324Z,40.28
2023-02-26T17:47:54.574Z,34.85
2023-02-26T17:50:25.979Z,28.63
2023-02-26T17:52:53.387Z,27.00
2023-02-26T17:55:20.546Z,31.23
2023-02-26T17:57:47.752Z,27.77
2023-02-26T18:00:15.816Z,28.70
2023-02-26T18:02:43.182Z,19.67
2023-02-26T18:05:10.547Z,25.63
2023-02-26T18:07:37.982Z,26.63
2023-02-26T18:10:05.801Z,26.17
2023-02-26T18:12:32.958Z,24.63
2023-02-26T18:15:00.174Z,26.67
2023-02-26T18:17:28.538Z,23.67
2023-02-26T18:19:55.761Z,23.30
2023-02-26T18:22:27.604Z,21.23
2023-02-26T18:24:55.648Z,22.15
2023-02-26T18:27:24.014Z,29.67
2023-02-26T18:29:52.091Z,28.35
2023-02-26T18:32:21.090Z,37.30
2023-02-26T18:34:52.121Z,29.42
2023-02-26T18:37:20.821Z,30.15
2023-02-26T18:39:47.994Z,26.40
2023-02-26T18:42:26.122Z,27.85
2023-02-26T18:44:54.214Z,33.17
2023-02-26T18:47:22.440Z,25.50
2023-02-26T18:49:51.477Z,31.45
2023-02-26T18:52:18.887Z,33.05
2023-02-26T18:54:47.107Z,34.58
2023-02-26T18:57:15.146Z,29.17
2023-02-26T18:59:42.316Z,28.50
2023-02-26T19:02:11.917Z,32.17
2023-02-26T19:04:39.690Z,31.13
2023-02-26T19:07:07.529Z,31.27
2023-02-26T19:09:35.152Z,30.08
2023-02-26T19:12:02.997Z,28.85
2023-02-26T19:14:30.154Z,32.97
2023-02-26T19:16:57.371Z,32.78
2023-02-26T19:19:24.473Z,27.95
2023-02-26T19:21:51.729Z,33.17
2023-02-26T19:24:18.856Z,33.05
2023-02-26T19:26:46.575Z,39.00
2023-02-26T19:29:16.408Z,47.88
2023-02-26T19:31:45.423Z,52.05
2023-02-26T19:34:13.352Z,39.78
2023-02-26T19:36:43.371Z,43.42
2023-02-26T19:39:11.938Z,42.03
2023-02-26T19:41:39.378Z,44.05
2023-02-26T19:44:06.528Z,46.65
2023-02-26T19:46:33.871Z,43.65
2023-02-26T19:49:01.062Z,43.58
2023-02-26T19:51:28.597Z,48.97
2023-02-26T19:53:55.895Z,42.80
2023-02-26T19:56:22.997Z,41.63
2023-02-26T19:58:52.438Z,43.03
2023-02-26T20:01:19.633Z,44.95
2023-02-26T20:03:48.732Z,41.45
2023-02-26T20:06:16.407Z,44.15
2023-02-26T20:08:43.557Z,42.17
2023-02-26T20:11:11.079Z,49.17
2023-02-26T20:13:38.302Z,44.72
2023-02-26T20:16:07.036Z,48.67
2023-02-26T20:18:35.437Z,59.25
2023-02-26T20:21:05.138Z,65.97
2023-02-26T20:23:34.749Z,70.97
2023-02-26T20:26:02.410Z,79.82
2023-02-26T20:28:29.653Z,69.20
2023-02-26T20:30:56.872Z,90.95
2023-02-26T20:33:25.289Z,98.10
2023-02-26T20:35:54.306Z,102.85
2023-02-26T20:38:23.610Z,90.82
2023-02-26T20:40:51.089Z,88.53
2023-02-26T20:43:18.246Z,84.60
2023-02-26T20:45:45.849Z,77.60
2023-02-26T20:48:13.042Z,71.93
2023-02-26T20:50:40.513Z,74.50
2023-02-26T20:53:08.313Z,78.32
2023-02-26T20:55:35.896Z,82.82
2023-02-26T20:58:05.017Z,82.60
2023-02-26T21:00:32.537Z,88.75
2023-02-26T21:02:59.695Z,83.93
2023-02-26T21:05:27.577Z,96.28
2023-02-26T21:07:58.329Z,91.22
2023-02-26T21:10:26.826Z,77.28
2023-02-26T21:12:53.986Z,73.50
2023-02-26T21:15:21.306Z,67.95
2023-02-26T21:17:48.694Z,75.32
2023-02-26T21:20:18.214Z,80.50
2023-02-26T21:22:48.581Z,74.43
2023-02-26T21:25:16.584Z,59.88
2023-02-26T21:27:46.235Z,62.70
2023-02-26T21:30:17.033Z,56.80
2023-02-26T21:32:44.546Z,54.13
2023-02-26T21:35:16.338Z,56.28
2023-02-26T21:37:44.591Z,48.35
2023-02-26T21:40:12.306Z,56.90
2023-02-26T21:42:39.524Z,53.70
2023-02-26T21:45:07.354Z,58.03
2023-02-26T21:47:34.767Z,50.65
2023-02-26T21:50:01.959Z,55.45
2023-02-26T21:52:29.653Z,55.22
2023-02-26T21:54:57.078Z,57.10
2023-02-26T21:57:27.612Z,53.63
2023-02-26T21:59:54.881Z,56.33
2023-02-26T22:02:24.529Z,57.17
2023-02-26T22:04:52.509Z,54.97
2023-02-26T22:07:19.993Z,51.80
2023-02-26T22:09:49.083Z,65.65
2023-02-26T22:12:19.429Z,54.47
2023-02-26T22:14:49.403Z,49.03
2023-02-26T22:17:16.630Z,43.30
2023-02-26T22:19:46.517Z,49.33
2023-02-26T22:22:21.794Z,34.63
2023-02-26T22:24:51.657Z,27.55
2023-02-26T22:27:19.149Z,29.17
2023-02-26T22:29:53.674Z,27.27
2023-02-26T22:32:21.132Z,24.95
2023-02-26T22:34:55.568Z,32.22
2023-02-26T22:37:28.431Z,29.95
2023-02-26T22:40:09.205Z,28.23
2023-02-26T22:45:27.489Z,22.80
2023-02-26T22:47:57.227Z,27.02
2023-02-26T22:50:29.051Z,27.80
2023-02-26T22:52:59.959Z,25.65
2023-02-26T22:55:33.380Z,26.05
2023-02-26T22:58:04.495Z,23.55
2023-02-26T23:00:31.882Z,26.17
2023-02-26T23:02:59.242Z,23.10
2023-02-26T23:05:26.452Z,29.15
2023-02-26T23:07:58.244Z,22.80
2023-02-26T23:13:18.611Z,28.45
2023-02-26T23:16:03.109Z,25.48
2023-02-26T23:18:43.942Z,27.00
2023-02-26T23:21:13.924Z,23.23
2023-02-26T23:23:49.710Z,25.30
2023-02-26T23:26:17.352Z,26.58
2023-02-26T23:28:44.998Z,26.85
2023-02-26T23:31:17.048Z,21.70
2023-02-26T23:34:00.370Z,24.63
2023-02-26T23:36:40.951Z,25.98
2023-02-26T23:39:18.327Z,26.67
2023-02-26T23:41:48.421Z,23.48
2023-02-26T23:44:31.214Z,20.08
2023-02-26T23:47:00.810Z,19.88
2023-02-26T23:49:28.428Z,23.80
2023-02-26T23:51:57.001Z,22.15
2023-02-26T23:54:24.535Z,21.75
2023-02-26T23:56:51.941Z,22.35
2023-02-26T23:59:19.313Z,22.90
